Latest Weather Observations for Argyle

IDD60801

Issued at 11:31 pm CST Sunday 24 September 2017 (issued every 30 minutes, with the page automatically refreshed every 10 minutes)

About weather observations | Map of weather stations | Latest weather observations for NT | Other Formats
Station Details ID: 002064 Name: ARGYLE AERODROME Lat: -16.64 Lon: 128.45 Height: 164.0 m
Data from the previous 72 hours. | See also: Recent months at Argyle
Date/Time
CST
Temp
°C
App
Temp
°C
Dew
Point
°C
Rel
Hum
%
Delta-T
°C
Wind Press
QNH
hPa
Press
MSL
hPa
Rain since
9am
mm
Dir  Spd
km/h
Gust
km/h
Spd
kts
Gust
kts
24/11:00pm 30.3 25.6 10.7 29 11.3 N 26 33 14 18 1011.1 - 0.0
24/10:30pm 30.8 25.3 12.0 31 11.1 NNW 32 43 17 23 1010.9 1009.8 0.0
24/10:22pm 31.1 26.8 13.1 33 10.8 NNW 28 35 15 19 1010.8 - 0.0
24/10:00pm 30.1 29.0 14.4 38 9.6 NNW 13 17 7 9 1010.6 - 0.0
24/09:30pm 30.4 32.0 14.8 38 9.6 CALM 0 0 0 0 1010.0 - 0.0
24/09:00pm 30.5 30.9 15.4 40 9.4 W 7 9 4 5 1009.6 - 0.0
24/08:30pm 31.4 31.7 15.1 37 10.1 NE 7 9 4 5 1009.1 - 0.0
24/08:00pm 32.1 31.5 14.6 34 10.8 NNE 11 15 6 8 1008.7 - 0.0
24/07:30pm 32.5 31.5 14.5 33 11.1 NNE 13 15 7 8 1008.4 1007.3 0.0
24/07:00pm 33.6 31.9 13.5 29 12.3 NNE 15 20 8 11 1008.1 - 0.0
24/06:30pm 34.8 33.1 12.5 26 13.5 NE 13 17 7 9 1007.9 - 0.0
24/06:00pm 35.9 34.1 12.0 23 14.4 NE 13 20 7 11 1007.7 - 0.0
24/05:30pm 36.7 33.4 9.4 19 15.9 NE 17 24 9 13 1007.5 - 0.0
24/05:00pm 37.0 34.3 8.8 18 16.3 NNE 13 19 7 10 1007.6 - 0.0
24/04:30pm 37.7 34.1 8.3 16 16.9 NE 17 26 9 14 1007.6 1006.5 0.0
24/04:00pm 38.2 34.6 6.8 14 17.7 NE 15 22 8 12 1007.7 - 0.0
24/03:30pm 37.1 34.8 7.4 16 16.8 E 9 17 5 9 1008.2 - 0.0
24/03:00pm 37.8 35.3 4.9 13 18.0 NW 7 13 4 7 1008.7 - 0.0
24/02:30pm 37.1 34.6 4.7 13 17.6 W 7 15 4 8 1009.1 - 0.0
24/01:30pm 36.5 33.0 3.6 13 17.5 SSW 11 20 6 11 1010.1 1009.0 0.0
24/01:00pm 36.1 33.3 5.2 14 16.8 S 9 15 5 8 1010.7 - 0.0
24/12:30pm 35.8 33.2 6.3 16 16.3 W 9 17 5 9 1011.3 - 0.0
24/12:00pm 35.0 32.4 7.9 19 15.3 SW 11 19 6 10 1011.8 - 0.0
24/11:30am 34.8 46.6 34.7 99 0.1 SSW 13 24 7 13 1012.2 - 0.0
24/11:00am 33.7 44.5 33.7 100 0.0 S 13 24 7 13 1012.8 - 0.0
24/10:30am 32.8 42.3 32.7 99 0.1 S 15 22 8 12 1013.1 1012.0 0.0
24/10:00am 31.5 31.8 16.1 39 9.7 SSE 9 17 5 9 1013.4 - 0.0
24/09:30am 30.9 31.7 15.9 40 9.4 SE 6 9 3 5 1013.3 - 0.0
24/09:00am 29.9 30.5 15.8 42 8.8 NW 7 11 4 6 1013.2 - 0.0
24/08:30am 28.6 28.9 15.9 46 7.9 N 9 11 5 6 1012.8 - 0.0
24/08:00am 26.9 28.8 15.7 50 6.9 CALM 0 0 0 0 1012.6 - 0.0
24/07:30am 25.3 27.1 15.5 54 6.0 CALM 0 0 0 0 1012.4 1011.3 0.0
24/07:00am 24.9 26.7 15.5 56 5.7 CALM 0 0 0 0 1011.9 - 0.0
24/06:30am 25.2 26.3 15.5 55 5.9 S 4 7 2 4 1011.7 - 0.0
24/06:00am 26.2 26.9 15.6 52 6.5 SSW 6 9 3 5 1011.7 - 0.0
24/05:30am 25.7 26.3 15.8 54 6.1 S 7 11 4 6 1011.6 - 0.0
24/05:00am 25.1 25.4 15.0 53 6.1 W 7 9 4 5 1011.4 - 0.0
24/04:30am 26.1 28.2 16.2 54 6.1 CALM 0 7 0 4 1011.2 1010.1 0.0
24/04:00am 25.6 27.7 16.2 56 5.8 CALM 0 0 0 0 1011.2 - 0.0
24/03:30am 26.9 27.8 16.1 51 6.7 E 6 7 3 4 1011.2 - 0.0
24/03:00am 27.6 27.9 16.0 49 7.2 N 9 13 5 7 1011.3 - 0.0
24/02:30am 28.2 28.2 15.2 45 8.0 N 9 13 5 7 1011.5 - 0.0
24/02:00am 28.5 27.1 14.5 42 8.5 N 15 17 8 9 1011.6 - 0.0
24/01:30am 29.1 27.2 14.1 40 9.1 NNW 17 22 9 12 1011.8 - 0.0
24/01:00am 28.0 27.5 13.8 41 8.5 NNW 9 13 5 7 1011.9 - 0.0
24/12:30am 28.8 27.7 13.2 38 9.3 NNW 11 13 6 7 1012.0 - 0.0
24/12:00am 29.2 27.6 12.9 36 9.7 NW 13 17 7 9 1012.1 - 0.0
 
Date/Time
CST
Temp
°C
App
Temp
°C
Dew
Point
°C
Rel
Hum
%
Delta-T
°C
Wind Press
QNH
hPa
Press
MSL
hPa
Rain since
9am
mm
Dir  Spd
km/h
Gust
km/h
Spd
kts
Gust
kts
23/11:30pm 29.9 27.2 13.0 35 10.1 N 19 26 10 14 1012.0 - 0.0
23/11:00pm 30.9 28.0 15.1 38 9.8 N 24 32 13 17 1011.8 - 0.0
23/10:30pm 30.0 28.1 11.7 32 10.7 NW 13 17 7 9 1011.7 1010.7 0.0
23/10:00pm 29.5 27.8 10.0 29 11.1 NNW 9 9 5 5 1011.7 - 0.0
23/09:30pm 31.1 29.5 8.6 24 12.6 NNW 7 9 4 5 1011.2 - 0.0
23/09:00pm 31.8 30.3 9.0 24 12.9 NW 7 11 4 6 1010.9 - 0.0
23/08:30pm 31.3 29.3 8.7 24 12.7 W 9 13 5 7 1010.5 - 0.0
23/08:00pm 31.5 30.0 9.0 24 12.7 NW 7 9 4 5 1010.2 - 0.0
23/07:30pm 32.8 30.6 9.4 23 13.4 NE 11 17 6 9 1009.8 1008.7 0.0
23/07:00pm 33.7 30.6 8.7 21 14.2 NNE 15 19 8 10 1009.5 - 0.0
23/06:30pm 34.9 31.6 8.0 19 15.2 NNE 15 22 8 12 1009.2 - 0.0
23/06:00pm 36.1 32.2 7.3 17 16.2 NE 17 26 9 14 1009.1 - 0.0
23/05:30pm 36.9 32.8 8.0 17 16.5 NE 19 28 10 15 1008.9 - 0.0
23/05:00pm 37.9 33.9 6.5 14 17.6 NNE 17 26 9 14 1008.8 - 0.0
23/04:30pm 38.6 34.5 6.0 13 18.2 NE 17 28 9 15 1008.7 1007.6 0.0
23/04:00pm 38.3 35.8 8.0 16 17.4 E 11 24 6 13 1008.9 - 0.0
23/03:30pm 38.8 35.6 5.0 12 18.6 E 11 15 6 8 1009.2 - 0.0
23/03:00pm 38.5 34.6 5.4 13 18.3 ENE 15 20 8 11 1009.7 - 0.0
23/02:30pm 37.9 35.4 6.5 14 17.6 NE 9 15 5 8 1010.2 - 0.0
23/02:00pm 38.0 34.9 5.6 13 17.9 W 11 17 6 9 1010.6 - 0.0
23/01:30pm 37.8 34.6 5.2 13 17.9 NNW 11 26 6 14 1011.1 1010.0 0.0
23/01:00pm 37.1 33.7 5.7 14 17.3 NNE 13 20 7 11 1011.8 - 0.0
23/12:30pm 36.7 33.6 5.5 14 17.1 WSW 11 19 6 10 1012.4 - 0.0
23/12:00pm 36.2 33.4 6.8 16 16.4 ESE 11 20 6 11 1013.0 - 0.0
23/11:30am 34.8 33.2 8.9 20 14.8 WNW 7 11 4 6 1013.5 - 0.0
23/11:00am 33.7 32.5 10.3 24 13.6 NNW 7 11 4 6 1014.0 - 0.0
23/10:30am 33.0 31.5 10.7 25 13.0 NNE 9 15 5 8 1014.2 1013.1 0.0
23/10:00am 32.6 30.7 11.8 28 12.3 NNE 13 19 7 10 1014.5 - 0.0
23/09:30am 31.9 31.1 11.7 29 11.9 N 7 11 4 6 1014.4 - 0.0
23/09:00am 30.7 30.2 12.8 33 10.7 NNE 7 9 4 5 1014.3 - 0.0
23/08:30am 29.6 28.9 13.2 36 9.8 ENE 9 17 5 9 1014.2 - 0.0
23/08:00am 28.7 29.9 13.7 39 9.0 CALM 0 0 0 0 1013.7 - 0.0
23/07:30am 26.5 27.8 14.2 46 7.4 CALM 0 6 0 3 1013.4 1012.3 0.0
23/07:00am 24.8 24.8 13.6 49 6.6 S 6 7 3 4 1013.0 - 0.0
23/06:30am 25.3 24.4 11.2 41 8.0 SSW 7 11 4 6 1012.8 - 0.0
23/06:00am 24.5 24.0 12.6 47 6.9 SSW 7 9 4 5 1012.6 - 0.0
23/05:30am 25.1 24.6 12.7 46 7.2 SW 7 9 4 5 1012.4 - 0.0
23/05:00am 25.9 25.6 13.2 45 7.5 W 7 9 4 5 1011.7 - 0.0
23/04:30am 26.0 24.7 12.4 42 7.9 SW 11 13 6 7 1011.6 1010.6 0.0
23/04:00am 26.8 25.8 12.4 40 8.4 WSW 9 13 5 7 1011.5 - 0.0
23/03:30am 26.6 25.6 12.4 41 8.3 SW 9 13 5 7 1011.8 - 0.0
23/03:00am 26.3 24.6 12.4 42 8.1 WNW 13 17 7 9 1011.6 - 0.0
23/02:30am 27.0 24.4 12.0 39 8.7 NW 17 20 9 11 1011.6 - 0.0
23/02:00am 26.7 25.3 12.3 40 8.4 NW 11 13 6 7 1011.7 - 0.0
23/01:30am 26.6 24.7 11.7 39 8.6 NW 13 15 7 8 1011.8 1010.8 0.0
23/01:00am 26.9 25.6 11.2 37 9.0 WNW 9 13 5 7 1012.0 - 0.0
23/12:30am 28.7 26.7 11.4 34 10.0 N 13 17 7 9 1012.4 - 0.0
23/12:00am 27.1 25.0 9.8 33 9.7 WNW 11 13 6 7 1012.7 - 0.0
 
Date/Time
CST
Temp
°C
App
Temp
°C
Dew
Point
°C
Rel
Hum
%
Delta-T
°C
Wind Press
QNH
hPa
Press
MSL
hPa
Rain since
9am
mm
Dir  Spd
km/h
Gust
km/h
Spd
kts
Gust
kts
22/11:30pm 27.9 25.6 8.9 30 10.5 WNW 11 11 6 6 1012.8 - 0.0
22/11:00pm 28.6 27.1 9.0 29 10.9 NW 7 7 4 4 1012.9 - 0.0
22/10:30pm 29.9 27.5 8.7 26 11.8 N 11 13 6 7 1012.9 1011.8 0.0
22/10:00pm 30.0 27.1 6.3 22 12.7 NNW 11 15 6 8 1012.8 - 0.0
22/09:30pm 29.6 26.7 6.5 23 12.4 WNW 11 15 6 8 1012.7 - 0.0
22/09:00pm 31.5 28.7 5.1 19 14.0 N 9 11 5 6 1012.2 - 0.0
22/08:30pm 31.5 28.6 6.7 21 13.5 NE 11 11 6 6 1012.0 - 0.0
22/08:00pm 32.1 29.2 6.3 20 14.0 NE 11 13 6 7 1011.7 - 0.0
22/07:30pm 32.5 31.3 10.4 25 12.8 SE 7 9 4 5 1011.3 1010.2 0.0
22/07:00pm 33.7 32.9 10.9 25 13.4 SSE 6 7 3 4 1011.1 - 0.0
22/06:30pm 34.8 33.3 9.0 20 14.8 ENE 7 9 4 5 1010.9 - 0.0
22/06:00pm 35.7 33.6 8.3 18 15.6 ENE 9 19 5 10 1010.6 - 0.0
22/05:30pm 36.1 34.4 8.5 18 15.8 E 7 11 4 6 1010.6 - 0.0
22/05:00pm 36.1 32.5 3.0 12 17.4 NNE 11 20 6 11 1010.5 - 0.0
22/04:30pm 36.7 34.0 3.7 13 17.6 NNE 7 15 4 8 1010.5 1009.4 0.0
22/04:00pm 37.2 32.9 1.3 10 18.5 ENE 13 20 7 11 1010.7 - 0.0
22/03:30pm 37.0 31.6 1.2 10 18.4 NE 19 28 10 15 1010.9 - 0.0
22/03:00pm 36.7 31.8 1.7 11 18.1 NNE 17 28 9 15 1011.0 - 0.0
22/02:30pm 36.4 31.2 3.3 12 17.5 N 20 28 11 15 1011.3 - 0.0
22/02:00pm 36.3 31.7 3.9 13 17.3 N 17 20 9 11 1011.6 - 0.0
22/01:30pm 36.7 32.1 5.5 14 17.1 NNE 19 30 10 16 1012.2 1011.2 0.0
22/01:00pm 36.1 32.5 8.2 18 15.9 NNE 17 28 9 15 1012.9 - 0.0
22/12:30pm 35.2 32.4 8.5 19 15.2 NE 13 26 7 14 1013.4 - 0.0
22/12:00pm 34.7 32.5 12.0 25 13.6 NE 15 22 8 12 1013.8 - 0.0
22/11:30am 33.8 30.7 7.3 19 14.7 NNE 13 20 7 11 1014.1 - 0.0
22/11:00am 34.2 31.6 7.8 19 14.8 ENE 11 20 6 11 1014.3 - 0.0
22/10:30am 33.9 31.9 8.7 21 14.3 NE 9 17 5 9 1014.4 1013.3 0.0
22/10:00am 32.0 30.5 9.0 24 13.0 NW 7 9 4 5 1014.4 - 0.0
22/09:30am 30.4 29.5 9.3 27 11.9 NNW 4 9 2 5 1014.5 - 0.0
22/09:00am 28.9 27.7 9.7 30 10.8 NNW 6 7 3 4 1014.4 - 0.0
22/08:30am 27.1 25.9 6.5 27 10.9 WSW 2 9 1 5 1014.2 - 0.0
22/08:00am 23.8 21.3 6.4 32 9.0 WSW 9 9 5 5 1014.0 - 0.0
22/07:30am 22.9 22.1 6.7 35 8.4 CALM 0 7 0 4 1013.8 1012.7 0.0
22/07:00am 22.1 19.0 3.6 29 9.0 N 9 13 5 7 1013.3 - 0.0
22/06:30am 21.7 18.6 3.5 30 8.8 W 9 13 5 7 1012.9 - 0.0
22/06:00am 21.9 19.8 5.7 35 8.2 S 6 7 3 4 1012.4 - 0.0
22/05:30am 22.2 20.4 5.3 33 8.5 WSW 4 7 2 4 1012.0 - 0.0
22/05:00am 22.5 20.3 5.5 33 8.6 S 6 7 3 4 1011.7 - 0.0
22/04:30am 21.0 18.7 5.9 37 7.6 ESE 7 11 4 6 1011.5 1010.4 0.0
22/04:00am 23.7 21.6 5.7 31 9.2 S 6 9 3 5 1011.3 - 0.0
22/03:30am 24.5 22.2 5.6 29 9.7 SSW 7 9 4 5 1011.3 - 0.0
22/03:00am 25.5 22.8 3.9 24 10.8 SSW 7 11 4 6 1011.3 - 0.0
22/02:30am 25.3 23.1 6.3 29 9.9 SW 7 9 4 5 1011.3 - 0.0
22/02:00am 26.7 24.7 6.4 27 10.7 WSW 6 7 3 4 1011.4 - 0.0
22/01:30am 24.1 22.2 7.5 34 8.8 ESE 7 9 4 5 1011.7 1010.7 0.0

Other Formats:

Comma delimited format used in spreadsheet applications
http://www.bom.gov.au/fwo/IDD60801/IDD60801.94217.axf

JavaScript Object Notation format (JSON) in row-major order
http://www.bom.gov.au/fwo/IDD60801/IDD60801.94217.json